Other Surface Observations
Issued by NWS Great Falls, MT

Home | Current Version | Previous Version | Text Only | Print | Product List | Glossary On
Versions: 1 2 3 4 5 6 7 8 9 10 11 12 13 14 15 16 17 18 19 20 21 22 23 24 25 26 27 28 29 30 31 32 33 34 35 36 37 38 39 40 41 42 43 44 45 46 47 48 49 50
868
SXUS55 KTFX 161329
OSOTFX
AREA AWOS OBSERVATIONS
NATIONAL WEATHER SERVICE GREAT FALLS MT
0729 AM MDT WED AUG 16 2017

METAR KPWD 161330Z AUTO 00000KT 10SM 12/11 A2997 RMK PLENTYWOOD
METAR KPO1 161330Z AUTO 00000KT 6SM 13/11 A2996 RMK POPLAR
METAR K1S3 161330Z AUTO 00000KT 10SM 14/08 A2996 RMK FORSYTH
METAR KS71 161330Z AUTO 00000KT 10SM 12/05 A2993 RMK CHINOOK
METAR K38S 161330Z AUTO 00000KT 7SM 06/01 A3012 RMK DEER LODGE
METAR K3U3 161330Z AUTO 22003KT 7SM 08/00 A3010 RMK ANACONDA
METAR K6S5 161330Z AUTO 00000KT 10SM 08/03 A3007 RMK HAMILTON
METAR KS59 161330Z AUTO 00000KT 10SM 07/03 A3000 RMK LIBBY
METAR K88M 161330Z AUTO 10SM 07/03 A3000 RMK EUREKA



USA.gov is the U.S. government's official web portal to all federal, state and local government web resources and services.